sensor_id;sensor_type;location;lat;lon;timestamp;P1;durP1;ratioP1;P2;durP2;ratioP2
2724;SDS011;1370;52.596;13.112;2023-04-24T00:00:01;7.83;;;7.20;;
2724;SDS011;1370;52.596;13.112;2023-04-24T00:02:37;7.57;;;6.70;;
2724;SDS011;1370;52.596;13.112;2023-04-24T00:05:04;11.23;;;6.17;;
2724;SDS011;1370;52.596;13.112;2023-04-24T00:07:30;8.80;;;7.00;;
2724;SDS011;1370;52.596;13.112;2023-04-24T00:09:55;10.87;;;7.23;;
2724;SDS011;1370;52.596;13.112;2023-04-24T00:12:21;9.70;;;7.00;;
2724;SDS011;1370;52.596;13.112;2023-04-24T00:14:46;7.93;;;7.00;;
2724;SDS011;1370;52.596;13.112;2023-04-24T00:17:11;6.90;;;6.27;;
2724;SDS011;1370;52.596;13.112;2023-04-24T00:19:37;8.07;;;6.63;;
2724;SDS011;1370;52.596;13.112;2023-04-24T00:22:02;6.73;;;6.20;;
2724;SDS011;1370;52.596;13.112;2023-04-24T00:24:28;7.80;;;7.07;;
2724;SDS011;1370;52.596;13.112;2023-04-24T00:26:53;7.07;;;6.43;;
2724;SDS011;1370;52.596;13.112;2023-04-24T00:29:19;8.17;;;6.87;;
2724;SDS011;1370;52.596;13.112;2023-04-24T00:31:44;6.47;;;5.90;;
2724;SDS011;1370;52.596;13.112;2023-04-24T00:34:09;6.87;;;6.00;;
2724;SDS011;1370;52.596;13.112;2023-04-24T00:36:36;6.73;;;6.07;;
2724;SDS011;1370;52.596;13.112;2023-04-24T00:39:02;10.07;;;6.70;;
2724;SDS011;1370;52.596;13.112;2023-04-24T00:41:27;9.30;;;6.80;;
2724;SDS011;1370;52.596;13.112;2023-04-24T00:43:52;7.97;;;5.60;;
2724;SDS011;1370;52.596;13.112;2023-04-24T00:46:18;5.77;;;5.37;;
2724;SDS011;1370;52.596;13.112;2023-04-24T00:48:43;5.90;;;5.50;;
2724;SDS011;1370;52.596;13.112;2023-04-24T00:51:09;9.00;;;5.63;;
2724;SDS011;1370;52.596;13.112;2023-04-24T00:53:35;5.63;;;5.23;;
2724;SDS011;1370;52.596;13.112;2023-04-24T00:56:00;7.40;;;5.67;;
2724;SDS011;1370;52.596;13.112;2023-04-24T00:58:26;5.77;;;5.27;;
2724;SDS011;1370;52.596;13.112;2023-04-24T01:00:52;6.17;;;5.77;;
2724;SDS011;1370;52.596;13.112;2023-04-24T01:03:19;5.60;;;5.20;;
2724;SDS011;1370;52.596;13.112;2023-04-24T01:05:46;10.07;;;5.10;;
2724;SDS011;1370;52.596;13.112;2023-04-24T01:08:11;8.53;;;6.70;;
2724;SDS011;1370;52.596;13.112;2023-04-24T01:10:37;6.77;;;5.03;;
2724;SDS011;1370;52.596;13.112;2023-04-24T01:13:03;7.27;;;5.30;;
2724;SDS011;1370;52.596;13.112;2023-04-24T01:15:29;6.93;;;6.30;;
2724;SDS011;1370;52.596;13.112;2023-04-24T01:17:54;8.93;;;5.97;;
2724;SDS011;1370;52.596;13.112;2023-04-24T01:20:20;11.13;;;6.00;;
2724;SDS011;1370;52.596;13.112;2023-04-24T01:22:45;8.13;;;7.27;;
2724;SDS011;1370;52.596;13.112;2023-04-24T01:25:11;6.50;;;6.00;;
2724;SDS011;1370;52.596;13.112;2023-04-24T01:27:36;8.03;;;7.43;;
2724;SDS011;1370;52.596;13.112;2023-04-24T01:30:02;8.10;;;7.50;;
2724;SDS011;1370;52.596;13.112;2023-04-24T01:32:28;9.60;;;7.47;;
2724;SDS011;1370;52.596;13.112;2023-04-24T01:34:53;7.23;;;6.63;;
2724;SDS011;1370;52.596;13.112;2023-04-24T01:37:20;6.83;;;6.23;;
2724;SDS011;1370;52.596;13.112;2023-04-24T01:39:45;7.10;;;6.60;;
2724;SDS011;1370;52.596;13.112;2023-04-24T01:42:10;7.63;;;6.93;;
2724;SDS011;1370;52.596;13.112;2023-04-24T01:44:37;7.87;;;7.20;;
2724;SDS011;1370;52.596;13.112;2023-04-24T01:47:02;6.70;;;6.20;;
2724;SDS011;1370;52.596;13.112;2023-04-24T01:49:28;7.80;;;6.90;;
2724;SDS011;1370;52.596;13.112;2023-04-24T01:51:53;8.60;;;7.77;;
2724;SDS011;1370;52.596;13.112;2023-04-24T01:54:18;7.53;;;6.87;;
2724;SDS011;1370;52.596;13.112;2023-04-24T01:56:44;6.70;;;6.30;;
2724;SDS011;1370;52.596;13.112;2023-04-24T01:59:10;6.80;;;6.30;;
2724;SDS011;1370;52.596;13.112;2023-04-24T02:01:36;6.80;;;6.20;;
2724;SDS011;1370;52.596;13.112;2023-04-24T02:04:02;7.70;;;7.10;;
2724;SDS011;1370;52.596;13.112;2023-04-24T02:06:27;6.07;;;5.67;;
2724;SDS011;1370;52.596;13.112;2023-04-24T02:08:53;7.37;;;6.87;;
2724;SDS011;1370;52.596;13.112;2023-04-24T02:11:18;6.63;;;6.20;;
2724;SDS011;1370;52.596;13.112;2023-04-24T02:13:43;7.17;;;6.57;;
2724;SDS011;1370;52.596;13.112;2023-04-24T02:16:09;6.80;;;6.30;;
2724;SDS011;1370;52.596;13.112;2023-04-24T02:18:34;7.30;;;6.70;;
2724;SDS011;1370;52.596;13.112;2023-04-24T02:21:00;7.13;;;6.43;;
2724;SDS011;1370;52.596;13.112;2023-04-24T02:23:25;8.27;;;7.40;;
2724;SDS011;1370;52.596;13.112;2023-04-24T02:25:52;7.53;;;6.83;;
2724;SDS011;1370;52.596;13.112;2023-04-24T02:28:18;10.70;;;6.57;;
2724;SDS011;1370;52.596;13.112;2023-04-24T02:30:43;6.27;;;5.87;;
2724;SDS011;1370;52.596;13.112;2023-04-24T02:33:08;7.80;;;7.00;;
2724;SDS011;1370;52.596;13.112;2023-04-24T02:35:34;6.90;;;6.40;;
2724;SDS011;1370;52.596;13.112;2023-04-24T02:37:59;7.80;;;7.13;;
2724;SDS011;1370;52.596;13.112;2023-04-24T02:40:24;8.10;;;7.33;;
2724;SDS011;1370;52.596;13.112;2023-04-24T02:42:50;7.47;;;6.93;;
2724;SDS011;1370;52.596;13.112;2023-04-24T02:45:15;8.20;;;7.60;;
2724;SDS011;1370;52.596;13.112;2023-04-24T02:47:40;7.50;;;6.50;;
2724;SDS011;1370;52.596;13.112;2023-04-24T02:50:06;7.80;;;7.10;;
2724;SDS011;1370;52.596;13.112;2023-04-24T02:52:32;7.60;;;7.00;;
2724;SDS011;1370;52.596;13.112;2023-04-24T02:54:57;7.23;;;6.63;;
2724;SDS011;1370;52.596;13.112;2023-04-24T02:57:22;7.23;;;6.10;;
2724;SDS011;1370;52.596;13.112;2023-04-24T02:59:48;7.80;;;7.20;;
2724;SDS011;1370;52.596;13.112;2023-04-24T03:02:13;7.50;;;6.80;;
2724;SDS011;1370;52.596;13.112;2023-04-24T03:04:38;7.40;;;6.90;;
2724;SDS011;1370;52.596;13.112;2023-04-24T03:07:04;7.07;;;6.57;;
2724;SDS011;1370;52.596;13.112;2023-04-24T03:09:30;6.77;;;6.23;;
2724;SDS011;1370;52.596;13.112;2023-04-24T03:11:55;6.53;;;6.17;;
2724;SDS011;1370;52.596;13.112;2023-04-24T03:14:21;7.30;;;6.60;;
2724;SDS011;1370;52.596;13.112;2023-04-24T03:16:46;8.27;;;7.10;;
2724;SDS011;1370;52.596;13.112;2023-04-24T03:19:12;6.93;;;6.43;;
2724;SDS011;1370;52.596;13.112;2023-04-24T03:21:38;7.70;;;7.00;;
2724;SDS011;1370;52.596;13.112;2023-04-24T03:24:05;13.20;;;7.33;;
2724;SDS011;1370;52.596;13.112;2023-04-24T03:26:31;8.43;;;7.83;;
2724;SDS011;1370;52.596;13.112;2023-04-24T03:28:57;6.13;;;5.73;;
2724;SDS011;1370;52.596;13.112;2023-04-24T03:31:22;7.87;;;7.17;;
2724;SDS011;1370;52.596;13.112;2023-04-24T03:33:48;8.67;;;7.97;;
2724;SDS011;1370;52.596;13.112;2023-04-24T03:36:13;6.50;;;6.10;;
2724;SDS011;1370;52.596;13.112;2023-04-24T03:38:38;6.90;;;6.40;;
2724;SDS011;1370;52.596;13.112;2023-04-24T03:41:04;7.87;;;7.27;;
2724;SDS011;1370;52.596;13.112;2023-04-24T03:43:29;7.83;;;7.23;;
2724;SDS011;1370;52.596;13.112;2023-04-24T03:45:54;9.83;;;7.20;;
2724;SDS011;1370;52.596;13.112;2023-04-24T03:48:20;8.20;;;7.20;;
2724;SDS011;1370;52.596;13.112;2023-04-24T03:50:45;7.73;;;6.90;;
2724;SDS011;1370;52.596;13.112;2023-04-24T03:53:10;8.50;;;7.83;;
2724;SDS011;1370;52.596;13.112;2023-04-24T03:55:36;8.57;;;7.87;;
2724;SDS011;1370;52.596;13.112;2023-04-24T03:58:01;7.40;;;6.90;;
2724;SDS011;1370;52.596;13.112;2023-04-24T04:00:26;8.33;;;7.63;;
2724;SDS011;1370;52.596;13.112;2023-04-24T04:02:52;7.73;;;7.10;;
2724;SDS011;1370;52.596;13.112;2023-04-24T04:05:17;8.90;;;8.10;;
2724;SDS011;1370;52.596;13.112;2023-04-24T04:07:43;7.17;;;6.70;;
2724;SDS011;1370;52.596;13.112;2023-04-24T04:10:08;8.60;;;7.90;;
2724;SDS011;1370;52.596;13.112;2023-04-24T04:12:33;8.00;;;7.10;;
2724;SDS011;1370;52.596;13.112;2023-04-24T04:14:59;7.73;;;7.13;;
2724;SDS011;1370;52.596;13.112;2023-04-24T04:17:24;9.10;;;8.17;;
2724;SDS011;1370;52.596;13.112;2023-04-24T04:19:49;8.93;;;8.03;;
2724;SDS011;1370;52.596;13.112;2023-04-24T04:22:15;8.83;;;7.73;;
2724;SDS011;1370;52.596;13.112;2023-04-24T04:24:40;8.37;;;7.57;;
2724;SDS011;1370;52.596;13.112;2023-04-24T04:27:06;10.73;;;9.70;;
2724;SDS011;1370;52.596;13.112;2023-04-24T04:29:32;33.80;;;26.43;;
2724;SDS011;1370;52.596;13.112;2023-04-24T04:31:59;23.77;;;20.90;;
2724;SDS011;1370;52.596;13.112;2023-04-24T04:34:25;13.77;;;12.37;;
2724;SDS011;1370;52.596;13.112;2023-04-24T04:36:50;9.87;;;8.97;;
2724;SDS011;1370;52.596;13.112;2023-04-24T04:39:15;8.97;;;7.47;;
2724;SDS011;1370;52.596;13.112;2023-04-24T04:41:41;10.03;;;7.50;;
2724;SDS011;1370;52.596;13.112;2023-04-24T04:44:06;8.73;;;7.97;;
2724;SDS011;1370;52.596;13.112;2023-04-24T04:46:33;9.60;;;8.70;;
2724;SDS011;1370;52.596;13.112;2023-04-24T04:48:59;8.10;;;7.47;;
2724;SDS011;1370;52.596;13.112;2023-04-24T04:51:25;6.70;;;6.20;;
2724;SDS011;1370;52.596;13.112;2023-04-24T04:53:50;7.17;;;6.67;;
2724;SDS011;1370;52.596;13.112;2023-04-24T04:56:16;7.83;;;6.70;;
2724;SDS011;1370;52.596;13.112;2023-04-24T04:58:41;7.07;;;6.43;;
2724;SDS011;1370;52.596;13.112;2023-04-24T05:01:06;7.93;;;6.37;;
2724;SDS011;1370;52.596;13.112;2023-04-24T05:03:32;11.13;;;6.60;;
2724;SDS011;1370;52.596;13.112;2023-04-24T05:05:57;6.73;;;6.13;;
2724;SDS011;1370;52.596;13.112;2023-04-24T05:08:22;7.07;;;6.40;;
2724;SDS011;1370;52.596;13.112;2023-04-24T05:10:48;5.73;;;5.33;;
2724;SDS011;1370;52.596;13.112;2023-04-24T05:13:13;6.90;;;6.30;;
2724;SDS011;1370;52.596;13.112;2023-04-24T05:15:38;5.83;;;5.40;;
2724;SDS011;1370;52.596;13.112;2023-04-24T05:18:03;6.53;;;6.03;;
2724;SDS011;1370;52.596;13.112;2023-04-24T05:20:29;5.90;;;5.50;;
2724;SDS011;1370;52.596;13.112;2023-04-24T05:22:54;83.23;;;64.67;;
2724;SDS011;1370;52.596;13.112;2023-04-24T05:25:20;71.30;;;45.73;;
2724;SDS011;1370;52.596;13.112;2023-04-24T05:27:46;10.40;;;8.43;;
2724;SDS011;1370;52.596;13.112;2023-04-24T05:30:11;10.07;;;7.30;;
2724;SDS011;1370;52.596;13.112;2023-04-24T05:32:37;5.30;;;4.87;;
2724;SDS011;1370;52.596;13.112;2023-04-24T05:35:02;4.33;;;4.03;;
2724;SDS011;1370;52.596;13.112;2023-04-24T05:37:27;8.20;;;4.37;;
2724;SDS011;1370;52.596;13.112;2023-04-24T05:39:53;4.97;;;3.80;;
2724;SDS011;1370;52.596;13.112;2023-04-24T05:42:18;3.50;;;3.30;;
2724;SDS011;1370;52.596;13.112;2023-04-24T05:44:43;18.67;;;14.87;;
2724;SDS011;1370;52.596;13.112;2023-04-24T05:47:08;70.33;;;53.17;;
2724;SDS011;1370;52.596;13.112;2023-04-24T05:49:34;42.70;;;34.93;;
2724;SDS011;1370;52.596;13.112;2023-04-24T05:51:59;5.80;;;5.10;;
2724;SDS011;1370;52.596;13.112;2023-04-24T05:54:24;4.17;;;3.87;;
2724;SDS011;1370;52.596;13.112;2023-04-24T05:56:50;3.67;;;2.70;;
2724;SDS011;1370;52.596;13.112;2023-04-24T05:59:15;3.57;;;3.27;;
2724;SDS011;1370;52.596;13.112;2023-04-24T06:01:41;3.33;;;2.97;;
2724;SDS011;1370;52.596;13.112;2023-04-24T06:04:06;2.57;;;2.33;;
2724;SDS011;1370;52.596;13.112;2023-04-24T06:06:32;2.60;;;2.40;;
2724;SDS011;1370;52.596;13.112;2023-04-24T06:08:57;3.40;;;3.10;;
2724;SDS011;1370;52.596;13.112;2023-04-24T06:11:23;2.30;;;2.10;;
2724;SDS011;1370;52.596;13.112;2023-04-24T06:13:49;1.73;;;1.63;;
2724;SDS011;1370;52.596;13.112;2023-04-24T06:16:15;2.50;;;1.93;;
2724;SDS011;1370;52.596;13.112;2023-04-24T06:18:40;2.30;;;2.10;;
2724;SDS011;1370;52.596;13.112;2023-04-24T06:21:05;3.10;;;2.17;;
2724;SDS011;1370;52.596;13.112;2023-04-24T06:23:31;1.70;;;1.60;;
2724;SDS011;1370;52.596;13.112;2023-04-24T06:25:57;2.43;;;1.87;;
2724;SDS011;1370;52.596;13.112;2023-04-24T06:28:23;5.20;;;1.70;;
2724;SDS011;1370;52.596;13.112;2023-04-24T06:30:48;2.70;;;1.67;;
2724;SDS011;1370;52.596;13.112;2023-04-24T06:33:13;1.90;;;1.80;;
2724;SDS011;1370;52.596;13.112;2023-04-24T06:35:39;3.93;;;2.90;;
2724;SDS011;1370;52.596;13.112;2023-04-24T06:38:04;4.70;;;1.90;;
2724;SDS011;1370;52.596;13.112;2023-04-24T06:40:29;2.43;;;1.70;;
2724;SDS011;1370;52.596;13.112;2023-04-24T06:42:55;3.70;;;1.50;;
2724;SDS011;1370;52.596;13.112;2023-04-24T06:45:20;2.50;;;1.40;;
2724;SDS011;1370;52.596;13.112;2023-04-24T06:47:46;2.00;;;1.60;;
2724;SDS011;1370;52.596;13.112;2023-04-24T06:50:11;1.70;;;1.60;;
2724;SDS011;1370;52.596;13.112;2023-04-24T06:52:37;1.90;;;1.80;;
2724;SDS011;1370;52.596;13.112;2023-04-24T06:55:03;7.13;;;2.00;;
2724;SDS011;1370;52.596;13.112;2023-04-24T06:57:29;2.10;;;1.80;;
2724;SDS011;1370;52.596;13.112;2023-04-24T06:59:54;3.80;;;1.60;;
2724;SDS011;1370;52.596;13.112;2023-04-24T07:02:20;3.30;;;1.37;;
2724;SDS011;1370;52.596;13.112;2023-04-24T07:04:45;1.43;;;1.27;;
2724;SDS011;1370;52.596;13.112;2023-04-24T07:07:12;2.67;;;1.77;;
2724;SDS011;1370;52.596;13.112;2023-04-24T07:09:39;2.70;;;1.30;;
2724;SDS011;1370;52.596;13.112;2023-04-24T07:12:05;2.93;;;1.20;;
2724;SDS011;1370;52.596;13.112;2023-04-24T07:14:32;3.20;;;1.60;;
2724;SDS011;1370;52.596;13.112;2023-04-24T07:16:58;1.90;;;1.80;;
2724;SDS011;1370;52.596;13.112;2023-04-24T07:19:23;2.43;;;1.20;;
2724;SDS011;1370;52.596;13.112;2023-04-24T07:21:48;1.60;;;1.20;;
2724;SDS011;1370;52.596;13.112;2023-04-24T07:24:14;1.40;;;1.20;;
2724;SDS011;1370;52.596;13.112;2023-04-24T07:26:40;1.93;;;1.27;;
2724;SDS011;1370;52.596;13.112;2023-04-24T07:29:05;2.00;;;1.50;;
2724;SDS011;1370;52.596;13.112;2023-04-24T07:31:31;1.40;;;1.13;;
2724;SDS011;1370;52.596;13.112;2023-04-24T07:33:56;1.70;;;1.53;;
2724;SDS011;1370;52.596;13.112;2023-04-24T07:36:23;2.73;;;1.80;;
2724;SDS011;1370;52.596;13.112;2023-04-24T07:38:49;1.57;;;1.37;;
2724;SDS011;1370;52.596;13.112;2023-04-24T07:41:14;1.57;;;1.00;;
2724;SDS011;1370;52.596;13.112;2023-04-24T07:43:39;6.90;;;1.13;;
2724;SDS011;1370;52.596;13.112;2023-04-24T07:46:05;2.33;;;1.13;;
2724;SDS011;1370;52.596;13.112;2023-04-24T07:48:31;1.83;;;1.47;;
2724;SDS011;1370;52.596;13.112;2023-04-24T07:50:56;2.27;;;1.20;;
2724;SDS011;1370;52.596;13.112;2023-04-24T07:53:21;3.60;;;1.40;;
2724;SDS011;1370;52.596;13.112;2023-04-24T07:55:47;1.50;;;1.23;;
2724;SDS011;1370;52.596;13.112;2023-04-24T07:58:12;2.17;;;1.30;;
2724;SDS011;1370;52.596;13.112;2023-04-24T08:00:37;3.07;;;1.30;;
2724;SDS011;1370;52.596;13.112;2023-04-24T08:03:03;1.47;;;1.10;;
2724;SDS011;1370;52.596;13.112;2023-04-24T08:05:28;1.50;;;1.17;;
2724;SDS011;1370;52.596;13.112;2023-04-24T08:07:54;1.50;;;1.10;;
2724;SDS011;1370;52.596;13.112;2023-04-24T08:10:20;2.13;;;1.10;;
2724;SDS011;1370;52.596;13.112;2023-04-24T08:12:46;2.20;;;1.10;;
2724;SDS011;1370;52.596;13.112;2023-04-24T08:15:12;3.63;;;1.30;;
2724;SDS011;1370;52.596;13.112;2023-04-24T08:17:37;1.40;;;1.10;;
2724;SDS011;1370;52.596;13.112;2023-04-24T08:20:03;2.03;;;1.23;;
2724;SDS011;1370;52.596;13.112;2023-04-24T08:22:30;1.60;;;1.30;;
2724;SDS011;1370;52.596;13.112;2023-04-24T08:24:55;2.50;;;1.60;;
2724;SDS011;1370;52.596;13.112;2023-04-24T08:27:21;2.13;;;1.67;;
2724;SDS011;1370;52.596;13.112;2023-04-24T08:29:47;5.17;;;1.60;;
2724;SDS011;1370;52.596;13.112;2023-04-24T08:32:12;2.03;;;1.10;;
2724;SDS011;1370;52.596;13.112;2023-04-24T08:34:37;1.50;;;0.93;;
2724;SDS011;1370;52.596;13.112;2023-04-24T08:37:03;1.57;;;1.40;;
2724;SDS011;1370;52.596;13.112;2023-04-24T08:39:28;2.20;;;1.20;;
2724;SDS011;1370;52.596;13.112;2023-04-24T08:41:54;4.77;;;1.73;;
2724;SDS011;1370;52.596;13.112;2023-04-24T08:44:20;1.50;;;1.30;;
2724;SDS011;1370;52.596;13.112;2023-04-24T08:46:46;1.40;;;1.17;;
2724;SDS011;1370;52.596;13.112;2023-04-24T08:49:13;1.40;;;0.80;;
2724;SDS011;1370;52.596;13.112;2023-04-24T08:51:41;2.80;;;1.40;;
2724;SDS011;1370;52.596;13.112;2023-04-24T08:54:06;1.93;;;1.10;;
2724;SDS011;1370;52.596;13.112;2023-04-24T08:56:32;3.30;;;1.73;;
2724;SDS011;1370;52.596;13.112;2023-04-24T08:58:58;2.30;;;0.93;;
2724;SDS011;1370;52.596;13.112;2023-04-24T09:01:23;4.27;;;1.10;;
2724;SDS011;1370;52.596;13.112;2023-04-24T09:03:50;1.60;;;1.13;;
2724;SDS011;1370;52.596;13.112;2023-04-24T09:06:16;2.87;;;1.30;;
2724;SDS011;1370;52.596;13.112;2023-04-24T09:08:42;2.07;;;1.30;;
2724;SDS011;1370;52.596;13.112;2023-04-24T09:11:08;1.73;;;0.87;;
2724;SDS011;1370;52.596;13.112;2023-04-24T09:13:35;2.90;;;1.30;;
2724;SDS011;1370;52.596;13.112;2023-04-24T09:16:00;2.80;;;1.10;;
2724;SDS011;1370;52.596;13.112;2023-04-24T09:18:26;1.50;;;1.07;;
2724;SDS011;1370;52.596;13.112;2023-04-24T09:21:01;1.60;;;0.97;;
2724;SDS011;1370;52.596;13.112;2023-04-24T09:23:28;2.37;;;1.10;;
2724;SDS011;1370;52.596;13.112;2023-04-24T09:25:54;1.40;;;1.00;;
2724;SDS011;1370;52.596;13.112;2023-04-24T09:28:24;4.23;;;1.10;;
2724;SDS011;1370;52.596;13.112;2023-04-24T09:31:01;3.40;;;1.10;;
2724;SDS011;1370;52.596;13.112;2023-04-24T09:33:58;1.73;;;1.17;;
2724;SDS011;1370;52.596;13.112;2023-04-24T09:36:36;2.77;;;1.00;;
2724;SDS011;1370;52.596;13.112;2023-04-24T09:39:07;2.53;;;1.10;;
2724;SDS011;1370;52.596;13.112;2023-04-24T09:41:43;2.10;;;0.80;;
2724;SDS011;1370;52.596;13.112;2023-04-24T09:44:16;1.50;;;1.10;;
2724;SDS011;1370;52.596;13.112;2023-04-24T09:46:55;2.37;;;1.00;;
2724;SDS011;1370;52.596;13.112;2023-04-24T09:49:23;1.77;;;0.93;;
2724;SDS011;1370;52.596;13.112;2023-04-24T09:51:52;1.33;;;0.90;;
2724;SDS011;1370;52.596;13.112;2023-04-24T09:54:27;1.57;;;0.97;;
2724;SDS011;1370;52.596;13.112;2023-04-24T09:56:52;2.80;;;1.27;;
2724;SDS011;1370;52.596;13.112;2023-04-24T09:59:19;2.00;;;1.50;;
2724;SDS011;1370;52.596;13.112;2023-04-24T10:01:45;1.50;;;1.00;;
2724;SDS011;1370;52.596;13.112;2023-04-24T10:04:20;2.73;;;1.20;;
2724;SDS011;1370;52.596;13.112;2023-04-24T10:06:46;1.60;;;0.93;;
2724;SDS011;1370;52.596;13.112;2023-04-24T10:09:13;2.00;;;1.40;;
2724;SDS011;1370;52.596;13.112;2023-04-24T10:11:43;1.50;;;1.17;;
2724;SDS011;1370;52.596;13.112;2023-04-24T10:14:14;4.17;;;1.10;;
2724;SDS011;1370;52.596;13.112;2023-04-24T10:16:40;2.60;;;1.00;;
2724;SDS011;1370;52.596;13.112;2023-04-24T10:19:06;1.30;;;1.10;;
2724;SDS011;1370;52.596;13.112;2023-04-24T10:21:31;4.53;;;1.10;;
2724;SDS011;1370;52.596;13.112;2023-04-24T10:23:57;1.97;;;1.00;;
2724;SDS011;1370;52.596;13.112;2023-04-24T10:26:22;1.83;;;1.47;;
2724;SDS011;1370;52.596;13.112;2023-04-24T10:28:49;1.80;;;1.10;;
2724;SDS011;1370;52.596;13.112;2023-04-24T10:31:16;2.00;;;0.90;;
2724;SDS011;1370;52.596;13.112;2023-04-24T10:33:42;1.30;;;0.90;;
2724;SDS011;1370;52.596;13.112;2023-04-24T10:36:11;1.87;;;1.20;;
2724;SDS011;1370;52.596;13.112;2023-04-24T10:38:38;2.13;;;0.93;;
2724;SDS011;1370;52.596;13.112;2023-04-24T10:41:09;1.60;;;1.17;;
2724;SDS011;1370;52.596;13.112;2023-04-24T10:43:40;2.67;;;1.20;;
2724;SDS011;1370;52.596;13.112;2023-04-24T10:46:06;4.50;;;0.90;;
2724;SDS011;1370;52.596;13.112;2023-04-24T10:48:35;1.70;;;1.10;;
2724;SDS011;1370;52.596;13.112;2023-04-24T10:51:00;5.27;;;1.20;;
2724;SDS011;1370;52.596;13.112;2023-04-24T10:53:29;2.40;;;1.40;;
2724;SDS011;1370;52.596;13.112;2023-04-24T10:56:03;1.57;;;1.23;;
2724;SDS011;1370;52.596;13.112;2023-04-24T10:58:49;2.47;;;1.07;;
2724;SDS011;1370;52.596;13.112;2023-04-24T11:01:29;3.10;;;1.00;;
2724;SDS011;1370;52.596;13.112;2023-04-24T11:03:57;1.40;;;0.90;;
2724;SDS011;1370;52.596;13.112;2023-04-24T11:06:28;1.70;;;0.80;;
2724;SDS011;1370;52.596;13.112;2023-04-24T11:09:04;1.40;;;0.90;;
2724;SDS011;1370;52.596;13.112;2023-04-24T11:11:34;6.30;;;2.87;;
2724;SDS011;1370;52.596;13.112;2023-04-24T11:14:00;3.20;;;1.63;;
2724;SDS011;1370;52.596;13.112;2023-04-24T11:16:27;1.97;;;1.27;;
2724;SDS011;1370;52.596;13.112;2023-04-24T11:21:30;1.30;;;0.90;;
2724;SDS011;1370;52.596;13.112;2023-04-24T11:29:39;1.70;;;1.27;;
2724;SDS011;1370;52.596;13.112;2023-04-24T11:34:53;1.40;;;1.17;;
2724;SDS011;1370;52.596;13.112;2023-04-24T11:37:23;1.50;;;1.20;;
2724;SDS011;1370;52.596;13.112;2023-04-24T11:39:51;1.57;;;1.30;;
2724;SDS011;1370;52.596;13.112;2023-04-24T11:42:17;3.20;;;1.30;;
2724;SDS011;1370;52.596;13.112;2023-04-24T11:44:43;4.80;;;1.20;;
2724;SDS011;1370;52.596;13.112;2023-04-24T11:47:08;1.90;;;1.10;;
2724;SDS011;1370;52.596;13.112;2023-04-24T11:49:36;1.50;;;1.07;;
2724;SDS011;1370;52.596;13.112;2023-04-24T11:52:01;1.53;;;0.87;;
2724;SDS011;1370;52.596;13.112;2023-04-24T11:54:27;1.53;;;1.17;;
2724;SDS011;1370;52.596;13.112;2023-04-24T11:56:53;1.37;;;0.93;;
2724;SDS011;1370;52.596;13.112;2023-04-24T11:59:18;1.50;;;1.30;;
2724;SDS011;1370;52.596;13.112;2023-04-24T12:01:46;1.40;;;1.00;;
2724;SDS011;1370;52.596;13.112;2023-04-24T12:04:12;1.70;;;0.90;;
2724;SDS011;1370;52.596;13.112;2023-04-24T12:06:38;1.60;;;1.10;;
2724;SDS011;1370;52.596;13.112;2023-04-24T12:09:04;2.77;;;1.20;;
2724;SDS011;1370;52.596;13.112;2023-04-24T12:11:30;2.00;;;1.07;;
2724;SDS011;1370;52.596;13.112;2023-04-24T12:13:55;1.87;;;1.47;;
2724;SDS011;1370;52.596;13.112;2023-04-24T12:16:20;1.40;;;0.80;;
2724;SDS011;1370;52.596;13.112;2023-04-24T12:18:46;1.30;;;0.90;;
2724;SDS011;1370;52.596;13.112;2023-04-24T12:21:21;2.30;;;1.33;;
2724;SDS011;1370;52.596;13.112;2023-04-24T12:23:47;1.77;;;0.90;;
2724;SDS011;1370;52.596;13.112;2023-04-24T12:26:18;1.40;;;0.70;;
2724;SDS011;1370;52.596;13.112;2023-04-24T12:28:46;1.40;;;0.70;;
2724;SDS011;1370;52.596;13.112;2023-04-24T12:31:13;1.60;;;1.30;;
2724;SDS011;1370;52.596;13.112;2023-04-24T12:33:38;1.80;;;1.27;;
2724;SDS011;1370;52.596;13.112;2023-04-24T12:36:03;2.47;;;1.00;;
2724;SDS011;1370;52.596;13.112;2023-04-24T12:38:30;2.63;;;1.17;;
2724;SDS011;1370;52.596;13.112;2023-04-24T12:41:08;1.40;;;0.90;;
2724;SDS011;1370;52.596;13.112;2023-04-24T12:43:34;2.50;;;1.03;;
2724;SDS011;1370;52.596;13.112;2023-04-24T12:46:00;3.23;;;1.17;;
2724;SDS011;1370;52.596;13.112;2023-04-24T12:48:26;1.80;;;1.00;;
2724;SDS011;1370;52.596;13.112;2023-04-24T12:50:52;2.43;;;1.00;;
2724;SDS011;1370;52.596;13.112;2023-04-24T12:53:17;2.20;;;1.30;;
2724;SDS011;1370;52.596;13.112;2023-04-24T12:55:43;2.20;;;1.40;;
2724;SDS011;1370;52.596;13.112;2023-04-24T12:58:09;3.10;;;1.20;;
2724;SDS011;1370;52.596;13.112;2023-04-24T13:00:34;3.30;;;1.57;;
2724;SDS011;1370;52.596;13.112;2023-04-24T13:03:00;1.50;;;1.20;;
2724;SDS011;1370;52.596;13.112;2023-04-24T13:05:26;1.90;;;1.63;;
2724;SDS011;1370;52.596;13.112;2023-04-24T13:07:51;2.43;;;1.33;;
2724;SDS011;1370;52.596;13.112;2023-04-24T13:10:17;1.50;;;1.40;;
2724;SDS011;1370;52.596;13.112;2023-04-24T13:12:42;1.80;;;1.40;;
2724;SDS011;1370;52.596;13.112;2023-04-24T13:15:10;1.40;;;1.07;;
2724;SDS011;1370;52.596;13.112;2023-04-24T13:17:35;2.43;;;1.63;;
2724;SDS011;1370;52.596;13.112;2023-04-24T13:20:01;4.10;;;1.90;;
2724;SDS011;1370;52.596;13.112;2023-04-24T13:22:26;2.10;;;1.60;;
2724;SDS011;1370;52.596;13.112;2023-04-24T13:24:52;1.47;;;1.20;;
2724;SDS011;1370;52.596;13.112;2023-04-24T13:27:17;1.90;;;1.60;;
2724;SDS011;1370;52.596;13.112;2023-04-24T13:29:43;2.27;;;1.50;;
2724;SDS011;1370;52.596;13.112;2023-04-24T13:32:08;2.63;;;1.30;;
2724;SDS011;1370;52.596;13.112;2023-04-24T13:34:34;3.77;;;1.30;;
2724;SDS011;1370;52.596;13.112;2023-04-24T13:36:59;2.00;;;1.30;;
2724;SDS011;1370;52.596;13.112;2023-04-24T13:39:25;2.07;;;1.60;;
2724;SDS011;1370;52.596;13.112;2023-04-24T13:41:51;3.10;;;2.53;;
2724;SDS011;1370;52.596;13.112;2023-04-24T13:44:16;1.77;;;1.37;;
2724;SDS011;1370;52.596;13.112;2023-04-24T13:46:43;2.20;;;1.27;;
2724;SDS011;1370;52.596;13.112;2023-04-24T13:49:10;2.20;;;1.50;;
2724;SDS011;1370;52.596;13.112;2023-04-24T13:51:35;1.70;;;1.20;;
2724;SDS011;1370;52.596;13.112;2023-04-24T13:54:01;2.27;;;1.37;;
2724;SDS011;1370;52.596;13.112;2023-04-24T13:56:26;2.67;;;1.20;;
2724;SDS011;1370;52.596;13.112;2023-04-24T13:58:51;2.30;;;1.13;;
2724;SDS011;1370;52.596;13.112;2023-04-24T14:01:16;1.80;;;0.97;;
2724;SDS011;1370;52.596;13.112;2023-04-24T14:03:42;2.63;;;1.30;;
2724;SDS011;1370;52.596;13.112;2023-04-24T14:06:10;1.40;;;0.87;;
2724;SDS011;1370;52.596;13.112;2023-04-24T14:08:35;2.37;;;1.40;;
2724;SDS011;1370;52.596;13.112;2023-04-24T14:11:01;2.00;;;1.37;;
2724;SDS011;1370;52.596;13.112;2023-04-24T14:13:26;1.50;;;1.20;;
2724;SDS011;1370;52.596;13.112;2023-04-24T14:15:52;1.63;;;1.50;;
2724;SDS011;1370;52.596;13.112;2023-04-24T14:18:18;1.87;;;1.20;;
2724;SDS011;1370;52.596;13.112;2023-04-24T14:20:43;1.70;;;1.30;;
2724;SDS011;1370;52.596;13.112;2023-04-24T14:23:09;2.37;;;1.10;;
2724;SDS011;1370;52.596;13.112;2023-04-24T14:25:34;2.70;;;1.57;;
2724;SDS011;1370;52.596;13.112;2023-04-24T14:27:59;1.50;;;1.00;;
2724;SDS011;1370;52.596;13.112;2023-04-24T14:30:24;1.90;;;1.13;;
2724;SDS011;1370;52.596;13.112;2023-04-24T14:32:50;1.90;;;1.33;;
2724;SDS011;1370;52.596;13.112;2023-04-24T14:35:15;1.77;;;1.40;;
2724;SDS011;1370;52.596;13.112;2023-04-24T14:37:40;2.23;;;1.37;;
2724;SDS011;1370;52.596;13.112;2023-04-24T14:40:07;2.03;;;1.30;;
2724;SDS011;1370;52.596;13.112;2023-04-24T14:42:33;2.43;;;1.30;;
2724;SDS011;1370;52.596;13.112;2023-04-24T14:44:58;1.57;;;1.30;;
2724;SDS011;1370;52.596;13.112;2023-04-24T14:47:23;2.87;;;1.30;;
2724;SDS011;1370;52.596;13.112;2023-04-24T14:49:49;1.90;;;1.27;;
2724;SDS011;1370;52.596;13.112;2023-04-24T14:52:14;1.70;;;1.17;;
2724;SDS011;1370;52.596;13.112;2023-04-24T14:54:40;1.63;;;1.33;;
2724;SDS011;1370;52.596;13.112;2023-04-24T14:57:06;3.80;;;1.43;;
2724;SDS011;1370;52.596;13.112;2023-04-24T14:59:32;1.70;;;1.47;;
2724;SDS011;1370;52.596;13.112;2023-04-24T15:01:57;2.23;;;1.57;;
2724;SDS011;1370;52.596;13.112;2023-04-24T15:04:26;11.07;;;9.63;;